Time;durP1;ratioP1;P1;durP2;ratioP2;P2;SDS_P1;SDS_P2;PMS_P1;PMS_P2;Temp;Humidity;BMP_temperature;BMP_pressure;BME280_temperature;BME280_humidity;BME280_pressure;Samples;Min_cycle;Max_cycle;Signal;HPM_P1;HPM_P2
2022/08/16 00:03:09;;;;;;;24.02;16.90;;;19.60;99.90;;;;;;10285876;28;20413;-82
2022/08/16 00:08:11;;;;;;;27.98;18.00;;;19.50;99.90;;;;;;10277262;28;20095;-80
2022/08/16 00:13:11;;;;;;;27.02;17.88;;;19.50;99.90;;;;;;10290380;28;20967;-81
2022/08/16 00:18:15;;;;;;;24.98;17.05;;;19.60;99.90;;;;;;10288886;28;20045;-80
2022/08/16 00:23:16;;;;;;;23.48;16.55;;;19.60;99.90;;;;;;10275675;28;20026;-80
2022/08/16 00:28:16;;;;;;;25.48;17.20;;;19.50;99.90;;;;;;10289949;28;20514;-79
2022/08/16 00:33:17;;;;;;;27.23;18.77;;;19.30;99.90;;;;;;10284033;28;20039;-81
2022/08/16 00:38:17;;;;;;;27.98;18.48;;;19.20;99.90;;;;;;10287115;28;20047;-80
2022/08/16 00:43:24;;;;;;;28.20;17.83;;;19.10;99.90;;;;;;10285701;28;20035;-80
2022/08/16 00:48:24;;;;;;;28.67;20.08;;;19.00;99.90;;;;;;10300806;28;20503;-81
2022/08/16 00:53:26;;;;;;;25.67;17.65;;;18.90;99.90;;;;;;10297767;28;20038;-80
2022/08/16 00:58:29;;;;;;;33.15;20.13;;;18.80;99.90;;;;;;10291083;28;20467;-79
2022/08/16 01:03:31;;;;;;;27.98;17.90;;;18.70;99.90;;;;;;10288857;28;20034;-79
2022/08/16 01:08:34;;;;;;;25.83;16.55;;;18.80;99.90;;;;;;10302408;28;20443;-80
2022/08/16 01:13:37;;;;;;;32.10;20.92;;;18.70;99.90;;;;;;10307708;28;20038;-79
2022/08/16 01:18:51;;;;;;;27.42;18.48;;;18.70;99.90;;;;;;10291167;28;20086;-79
2022/08/16 01:23:58;;;;;;;27.83;18.37;;;18.70;99.90;;;;;;10301248;28;20030;-79
2022/08/16 01:29:05;;;;;;;29.58;19.05;;;18.70;99.90;;;;;;10289397;28;20442;-80
2022/08/16 01:34:05;;;;;;;24.15;15.88;;;18.70;99.90;;;;;;10295145;28;20176;-80
2022/08/16 01:39:13;;;;;;;26.75;17.35;;;18.70;99.90;;;;;;10293289;28;20039;-80
2022/08/16 01:44:14;;;;;;;25.30;17.73;;;18.70;99.90;;;;;;10291707;28;20035;-81
2022/08/16 01:49:41;;;;;;;19.20;13.90;;;18.60;99.90;;;;;;10295932;28;20463;-80
2022/08/16 01:54:42;;;;;;;21.85;15.13;;;18.60;99.90;;;;;;10278272;28;20050;-79
2022/08/16 01:59:43;;;;;;;24.10;16.35;;;18.50;99.90;;;;;;10293473;28;20034;-80
2022/08/16 02:04:43;;;;;;;27.77;17.38;;;18.50;99.90;;;;;;10298726;28;20053;-80
2022/08/16 02:09:46;;;;;;;20.52;13.77;;;18.40;99.90;;;;;;10300047;28;20057;-80
2022/08/16 02:14:47;;;;;;;31.35;20.80;;;18.40;99.90;;;;;;10313868;28;20045;-80
2022/08/16 02:19:48;;;;;;;31.80;19.40;;;18.40;99.90;;;;;;10310855;28;20042;-79
2022/08/16 02:24:49;;;;;;;29.65;18.75;;;18.50;99.90;;;;;;10300097;28;20073;-80
2022/08/16 02:29:50;;;;;;;27.35;18.92;;;18.40;99.90;;;;;;10287391;28;20058;-81
2022/08/16 02:34:50;;;;;;;25.02;16.52;;;18.50;99.90;;;;;;10309581;28;20121;-79
2022/08/16 02:39:51;;;;;;;25.95;17.45;;;18.50;99.90;;;;;;10291191;28;20068;-79
2022/08/16 02:44:51;;;;;;;25.88;17.90;;;18.40;99.90;;;;;;10311035;28;20033;-80
2022/08/16 02:49:52;;;;;;;52.38;21.85;;;18.20;99.90;;;;;;10299325;28;20088;-80
2022/08/16 02:54:53;;;;;;;25.52;18.33;;;18.00;99.90;;;;;;10314570;28;20050;-81
2022/08/16 02:59:53;;;;;;;27.63;17.85;;;17.90;99.90;;;;;;10301841;28;20086;-80
2022/08/16 03:04:54;;;;;;;27.70;17.55;;;17.80;99.90;;;;;;10286260;28;20043;-82
2022/08/16 03:09:55;;;;;;;140.60;50.92;;;17.70;99.90;;;;;;10297827;28;20042;-81
2022/08/16 03:14:56;;;;;;;61.28;24.77;;;17.70;99.90;;;;;;10297808;28;20047;-82
2022/08/16 03:19:57;;;;;;;26.48;16.58;;;17.70;99.90;;;;;;10299134;28;20041;-82
2022/08/16 03:24:59;;;;;;;30.00;17.98;;;17.60;99.90;;;;;;10301035;28;20038;-85
2022/08/16 03:30:05;;;;;;;29.90;18.10;;;17.50;99.90;;;;;;10295351;28;20176;-80
2022/08/16 03:35:07;;;;;;;24.55;16.23;;;17.50;99.90;;;;;;10309481;28;20128;-81
2022/08/16 03:40:09;;;;;;;25.75;16.92;;;17.50;99.90;;;;;;10302363;28;20057;-81
2022/08/16 03:45:09;;;;;;;27.45;16.80;;;17.50;99.90;;;;;;10298602;28;20023;-80
2022/08/16 03:50:10;;;;;;;33.72;19.23;;;17.60;99.90;;;;;;10290884;28;20039;-84
2022/08/16 03:55:11;;;;;;;24.25;14.40;;;17.70;99.90;;;;;;10288650;28;20370;-82
2022/08/16 04:00:19;;;;;;;30.17;18.17;;;17.80;99.90;;;;;;10282007;28;20117;-82
2022/08/16 04:05:19;;;;;;;22.75;15.68;;;17.70;99.90;;;;;;10298066;28;20064;-81
2022/08/16 04:10:20;;;;;;;24.88;16.10;;;17.80;99.90;;;;;;10285602;28;20040;-82
2022/08/16 04:15:21;;;;;;;23.58;15.68;;;17.80;99.90;;;;;;10312322;28;20046;-82
2022/08/16 04:20:22;;;;;;;26.85;16.52;;;17.80;99.90;;;;;;10306191;28;20375;-83
2022/08/16 04:25:23;;;;;;;27.85;16.48;;;17.80;99.90;;;;;;10312898;28;20030;-80
2022/08/16 04:30:23;;;;;;;23.75;15.30;;;17.70;99.90;;;;;;10290840;28;20041;-87
2022/08/16 04:35:25;;;;;;;19.70;14.15;;;17.70;99.90;;;;;;10302021;28;20379;-87
2022/08/16 04:40:26;;;;;;;25.67;16.55;;;17.80;99.90;;;;;;10302271;28;20034;-84
2022/08/16 04:45:27;;;;;;;23.90;15.15;;;17.80;99.90;;;;;;10313647;28;20051;-86
2022/08/16 04:50:28;;;;;;;24.40;15.85;;;17.80;99.90;;;;;;10313762;28;20030;-85
2022/08/16 04:55:29;;;;;;;27.70;16.80;;;17.90;99.90;;;;;;10311687;28;20068;-83
2022/08/16 05:00:35;;;;;;;24.75;15.63;;;18.00;99.90;;;;;;10315247;28;20061;-86
2022/08/16 05:05:37;;;;;;;27.38;17.77;;;18.10;99.90;;;;;;10302922;28;20054;-85
2022/08/16 05:10:38;;;;;;;34.78;20.27;;;18.30;99.90;;;;;;10324978;28;20034;-84
2022/08/16 05:15:39;;;;;;;41.95;24.02;;;18.50;99.90;;;;;;10301743;28;20393;-86
2022/08/16 05:20:39;;;;;;;33.72;21.70;;;18.80;99.90;;;;;;10314475;28;20034;-85
2022/08/16 05:25:40;;;;;;;32.00;21.40;;;19.00;99.90;;;;;;10315262;28;20040;-84
2022/08/16 05:30:41;;;;;;;30.88;20.95;;;19.30;99.90;;;;;;10322852;28;20033;-83
2022/08/16 05:35:41;;;;;;;31.13;20.73;;;19.50;99.90;;;;;;10306633;28;20039;-84
2022/08/16 05:40:42;;;;;;;31.70;20.40;;;19.80;99.90;;;;;;10294985;28;20125;-85
2022/08/16 05:45:44;;;;;;;30.85;21.25;;;19.90;99.90;;;;;;10319163;28;20030;-86
2022/08/16 05:50:44;;;;;;;30.58;20.77;;;20.00;99.90;;;;;;10311878;28;20026;-86
2022/08/16 05:55:45;;;;;;;36.85;24.08;;;20.20;99.90;;;;;;10298621;28;20026;-86
2022/08/16 06:00:45;;;;;;;33.03;20.27;;;20.40;99.90;;;;;;10319512;28;20034;-85
2022/08/16 06:05:46;;;;;;;30.55;19.90;;;20.40;99.90;;;;;;10312279;28;20499;-87
2022/08/16 06:10:46;;;;;;;29.35;19.60;;;20.50;99.90;;;;;;10301790;28;20149;-85
2022/08/16 06:15:50;;;;;;;31.80;19.30;;;20.60;99.90;;;;;;10310640;28;20113;-86
2022/08/16 06:20:51;;;;;;;32.20;21.88;;;20.70;99.90;;;;;;10317612;28;20026;-84
2022/08/16 06:25:52;;;;;;;35.35;22.80;;;20.90;99.90;;;;;;10321571;28;20035;-86
2022/08/16 06:30:57;;;;;;;32.72;20.85;;;21.20;99.90;;;;;;10304817;28;20199;-87
2022/08/16 06:35:58;;;;;;;29.52;18.80;;;21.40;99.90;;;;;;10272468;28;20042;-85
2022/08/16 06:40:58;;;;;;;25.33;18.13;;;21.50;99.90;;;;;;10275421;28;20061;-83
2022/08/16 06:46:00;;;;;;;25.40;16.52;;;21.70;99.90;;;;;;10257930;28;20034;-84
2022/08/16 06:51:06;;;;;;;21.00;14.45;;;21.90;99.90;;;;;;10296279;28;20715;-83
2022/08/16 06:56:07;;;;;;;23.65;15.40;;;22.10;99.90;;;;;;10291152;28;20038;-84
2022/08/16 07:01:10;;;;;;;21.52;14.80;;;22.50;99.90;;;;;;10296519;28;20039;-84
2022/08/16 07:06:11;;;;;;;20.90;14.13;;;22.70;99.90;;;;;;10248834;28;20058;-85
2022/08/16 07:11:13;;;;;;;20.52;13.93;;;22.90;99.90;;;;;;10275842;28;20038;-84
2022/08/16 07:16:15;;;;;;;17.75;12.07;;;23.20;99.90;;;;;;10275056;28;20054;-85
2022/08/16 07:21:16;;;;;;;19.25;13.20;;;23.50;99.90;;;;;;10286502;28;20023;-89
2022/08/16 07:26:24;;;;;;;17.67;12.80;;;23.80;99.90;;;;;;10281839;28;20053;-87
2022/08/16 07:31:25;;;;;;;16.30;11.82;;;24.10;99.90;;;;;;10277106;28;20031;-87
2022/08/16 07:36:26;;;;;;;16.50;11.10;;;24.40;99.90;;;;;;10294957;28;20057;-86
2022/08/16 07:41:27;;;;;;;14.65;9.98;;;24.40;99.90;;;;;;10290459;28;20110;-86
2022/08/16 07:46:28;;;;;;;13.98;10.32;;;24.70;99.90;;;;;;10281375;28;20031;-87
2022/08/16 07:51:33;;;;;;;13.43;10.48;;;25.00;99.90;;;;;;10311869;28;20401;-86
2022/08/16 07:56:34;;;;;;;19.25;10.48;;;25.20;99.90;;;;;;10297674;28;20022;-85
2022/08/16 08:01:37;;;;;;;13.13;10.13;;;25.60;99.90;;;;;;10309184;28;20030;-85
2022/08/16 08:06:39;;;;;;;12.20;9.38;;;25.90;99.90;;;;;;10310106;28;20111;-86
2022/08/16 08:11:40;;;;;;;14.45;9.20;;;26.20;99.90;;;;;;10297446;28;20039;-87
2022/08/16 08:16:41;;;;;;;13.63;9.80;;;26.40;99.90;;;;;;10307778;28;20031;-88
2022/08/16 08:21:42;;;;;;;14.48;9.77;;;26.70;99.90;;;;;;10306072;28;20037;-88
2022/08/16 08:26:43;;;;;;;14.27;6.63;;;26.80;99.90;;;;;;10310993;28;20061;-87
2022/08/16 08:31:44;;;;;;;34.60;22.23;;;26.90;99.90;;;;;;10314982;28;20117;-85
2022/08/16 08:36:44;;;;;;;13.98;10.15;;;27.30;99.90;;;;;;10299561;28;20031;-85
2022/08/16 08:41:46;;;;;;;15.32;8.95;;;27.50;99.90;;;;;;10311081;28;20034;-86
2022/08/16 08:46:47;;;;;;;11.30;9.20;;;27.80;99.90;;;;;;10293995;28;20085;-86
2022/08/16 08:51:47;;;;;;;16.35;9.48;;;28.10;99.90;;;;;;10306420;28;20753;-87
2022/08/16 08:56:48;;;;;;;11.52;8.70;;;28.60;99.90;;;;;;10313966;28;20081;-85
2022/08/16 09:01:49;;;;;;;12.65;9.20;;;28.70;99.60;;;;;;10318379;28;20109;-85
2022/08/16 09:06:52;;;;;;;12.80;8.90;;;28.60;95.80;;;;;;10285617;28;1108234;-87
2022/08/16 09:11:55;;;;;;;13.48;9.55;;;28.80;95.70;;;;;;10310081;28;20483;-86
2022/08/16 09:16:56;;;;;;;10.63;8.15;;;29.10;96.40;;;;;;10314460;28;20034;-86
2022/08/16 09:21:57;;;;;;;12.18;9.13;;;29.50;93.50;;;;;;10319303;28;20104;-85
2022/08/16 09:26:58;;;;;;;11.50;7.63;;;29.70;92.90;;;;;;10323136;28;20026;-86
2022/08/16 09:31:58;;;;;;;15.18;9.73;;;29.80;91.60;;;;;;10316739;28;20022;-85
2022/08/16 09:36:59;;;;;;;11.25;8.93;;;29.80;92.30;;;;;;10304151;28;20069;-84
2022/08/16 09:41:59;;;;;;;11.45;8.18;;;30.20;90.60;;;;;;10312845;28;20114;-84
2022/08/16 09:47:01;;;;;;;15.60;9.18;;;30.30;87.80;;;;;;10303090;28;20504;-84
2022/08/16 09:52:01;;;;;;;10.82;8.32;;;30.50;87.70;;;;;;10316038;28;20038;-84
2022/08/16 09:57:02;;;;;;;12.55;8.00;;;30.50;85.90;;;;;;10320259;28;20033;-85
2022/08/16 10:02:03;;;;;;;10.32;8.07;;;30.70;87.00;;;;;;10317216;28;20023;-84
2022/08/16 10:07:04;;;;;;;9.57;8.30;;;30.90;82.20;;;;;;10291969;28;20054;-82
2022/08/16 10:17:24;;;;;;;9.02;7.57;;;31.20;78.40;;;;;;10318130;28;20038;-85
2022/08/16 10:22:25;;;;;;;12.02;7.70;;;31.50;75.60;;;;;;10323125;28;20027;-83
2022/08/16 10:27:27;;;;;;;13.77;8.43;;;31.80;75.80;;;;;;10306980;28;20027;-85
2022/08/16 10:32:29;;;;;;;12.32;8.65;;;32.00;75.60;;;;;;10311513;28;20066;-84
2022/08/16 10:37:30;;;;;;;10.90;7.80;;;32.40;75.10;;;;;;10301820;28;20030;-83
2022/08/16 10:42:31;;;;;;;9.48;8.23;;;32.40;75.10;;;;;;10312030;28;20089;-84
2022/08/16 10:47:31;;;;;;;11.63;9.05;;;32.70;71.10;;;;;;10316693;28;20094;-83
2022/08/16 10:52:32;;;;;;;14.25;10.13;;;32.90;71.20;;;;;;10320836;28;20125;-84
2022/08/16 10:57:33;;;;;;;15.00;9.13;;;31.40;68.20;;;;;;10293655;28;20069;-83
2022/08/16 11:02:33;;;;;;;11.73;8.90;;;29.70;72.00;;;;;;10309709;28;20030;-83
2022/08/16 11:07:34;;;;;;;10.43;7.78;;;28.60;74.40;;;;;;10313935;28;20133;-84
2022/08/16 11:12:34;;;;;;;27.45;11.60;;;27.80;80.70;;;;;;10316992;28;20116;-84
2022/08/16 11:17:36;;;;;;;15.95;8.43;;;25.40;99.90;;;;;;10314393;28;20484;-86
2022/08/16 11:22:37;;;;;;;19.33;12.82;;;23.10;99.90;;;;;;10307054;28;20027;-85
2022/08/16 11:27:37;;;;;;;25.27;16.92;;;21.70;99.90;;;;;;10293366;28;20054;-85
2022/08/16 11:32:38;;;;;;;18.38;12.38;;;21.20;99.90;;;;;;10297598;28;20129;-82
2022/08/16 11:37:42;;;;;;;21.30;13.93;;;21.50;99.90;;;;;;10304090;28;20027;-84
2022/08/16 11:42:42;;;;;;;31.75;17.70;;;21.50;99.90;;;;;;10298719;28;20038;-84
2022/08/16 11:47:43;;;;;;;20.50;15.35;;;21.70;99.90;;;;;;10317696;28;20034;-82
2022/08/16 11:52:44;;;;;;;15.88;10.13;;;22.10;99.90;;;;;;10298648;28;20510;-83
2022/08/16 11:57:44;;;;;;;26.15;13.45;;;22.40;99.90;;;;;;10309465;28;20110;-83
2022/08/16 12:02:45;;;;;;;24.98;14.55;;;22.70;99.90;;;;;;10314511;28;20093;-85
2022/08/16 12:07:45;;;;;;;28.70;13.05;;;22.80;99.90;;;;;;10318757;28;20054;-84
2022/08/16 12:12:46;;;;;;;26.98;15.75;;;22.60;99.90;;;;;;10309401;28;20112;-84
2022/08/16 12:17:47;;;;;;;24.50;15.35;;;22.60;99.90;;;;;;10306823;28;20038;-83
2022/08/16 12:22:49;;;;;;;21.73;15.30;;;22.70;99.90;;;;;;10311719;28;20037;-82
2022/08/16 12:27:51;;;;;;;27.42;18.50;;;22.80;99.90;;;;;;10321354;28;20398;-83
2022/08/16 12:32:52;;;;;;;20.15;13.85;;;23.00;99.90;;;;;;10321485;28;20042;-84
2022/08/16 12:37:53;;;;;;;24.80;15.32;;;23.10;99.90;;;;;;10279987;28;20425;-84
2022/08/16 12:42:56;;;;;;;18.67;11.82;;;22.90;99.90;;;;;;10302622;28;20027;-85
2022/08/16 12:53:19;;;;;;;18.95;13.25;;;22.90;99.90;;;;;;10295034;28;20050;-87
2022/08/16 12:58:20;;;;;;;14.68;10.07;;;23.20;99.90;;;;;;10271865;28;20759;-83
2022/08/16 13:03:20;;;;;;;17.45;12.23;;;23.20;99.90;;;;;;10299814;28;20035;-85
2022/08/16 13:08:22;;;;;;;17.02;12.40;;;23.30;99.90;;;;;;10310050;28;20606;-85
2022/08/16 13:13:24;;;;;;;16.70;11.68;;;23.60;99.90;;;;;;10311847;28;20173;-85
2022/08/16 13:18:28;;;;;;;17.02;11.20;;;23.80;99.90;;;;;;10309587;28;20031;-84
2022/08/16 13:23:28;;;;;;;16.90;11.68;;;24.10;99.90;;;;;;10303056;28;20034;-83
2022/08/16 13:28:29;;;;;;;16.85;10.82;;;24.50;99.90;;;;;;10316979;28;20030;-83
2022/08/16 13:33:35;;;;;;;16.20;10.00;;;25.10;99.90;;;;;;10316141;28;20041;-85
2022/08/16 13:38:37;;;;;;;14.23;10.38;;;25.50;99.90;;;;;;10306044;28;20038;-83
2022/08/16 13:43:39;;;;;;;12.18;8.48;;;26.20;99.90;;;;;;10290627;28;20042;-83
2022/08/16 13:48:39;;;;;;;10.40;7.80;;;26.40;99.90;;;;;;10312685;28;20037;-84
2022/08/16 13:53:40;;;;;;;11.18;7.88;;;26.40;99.90;;;;;;10299479;28;20041;-83
2022/08/16 13:58:40;;;;;;;14.90;10.18;;;26.30;99.90;;;;;;10306285;28;20026;-83
2022/08/16 14:03:41;;;;;;;10.60;7.75;;;26.40;99.90;;;;;;10279744;28;20035;-83
2022/08/16 14:08:43;;;;;;;13.18;9.00;;;26.80;99.90;;;;;;10286040;28;20064;-83
2022/08/16 14:13:46;;;;;;;12.20;9.35;;;27.00;99.90;;;;;;10305483;28;20046;-84
2022/08/16 14:18:46;;;;;;;10.90;9.18;;;27.20;99.90;;;;;;10283458;28;20037;-86
2022/08/16 14:23:47;;;;;;;13.23;10.05;;;27.00;99.90;;;;;;10311340;28;20034;-85
2022/08/16 14:28:49;;;;;;;11.55;9.18;;;26.80;99.90;;;;;;10318477;28;20045;-84
2022/08/16 14:33:50;;;;;;;13.27;8.55;;;26.90;99.90;;;;;;10294502;28;20090;-84
2022/08/16 14:38:51;;;;;;;10.23;7.90;;;26.80;99.90;;;;;;10279231;28;20045;-84
2022/08/16 14:43:51;;;;;;;12.75;8.65;;;26.80;99.90;;;;;;10274625;28;20094;-84
2022/08/16 14:48:52;;;;;;;13.05;8.07;;;26.80;99.90;;;;;;10256025;28;20031;-88
2022/08/16 14:53:53;;;;;;;12.00;8.77;;;26.90;99.90;;;;;;10251442;28;20031;-86
2022/08/16 14:58:53;;;;;;;14.18;9.77;;;27.00;99.90;;;;;;10300903;28;20035;-85
2022/08/16 15:03:54;;;;;;;11.55;10.25;;;27.00;99.90;;;;;;10319174;28;20030;-85
2022/08/16 15:08:54;;;;;;;13.68;10.43;;;27.00;99.90;;;;;;10260056;28;20490;-82
2022/08/16 15:13:57;;;;;;;11.88;8.52;;;27.10;99.90;;;;;;10274003;28;20039;-85
2022/08/16 15:18:58;;;;;;;10.00;7.93;;;27.20;99.90;;;;;;10290308;28;20034;-82
2022/08/16 15:23:59;;;;;;;13.73;8.50;;;27.10;99.90;;;;;;10284741;28;20074;-83
2022/08/16 15:29:00;;;;;;;11.32;8.75;;;27.20;99.90;;;;;;10280171;28;20054;-87
2022/08/16 15:34:00;;;;;;;12.88;9.60;;;27.20;99.90;;;;;;10264647;28;20146;-84
2022/08/16 15:39:01;;;;;;;13.00;9.52;;;27.20;99.90;;;;;;10277864;28;20135;-85
2022/08/16 15:44:07;;;;;;;15.82;10.10;;;27.30;99.90;;;;;;10280056;28;20035;-85
2022/08/16 15:49:08;;;;;;;12.32;9.77;;;27.40;99.90;;;;;;10302013;28;20030;-84
2022/08/16 15:54:09;;;;;;;13.75;9.95;;;27.50;99.90;;;;;;10290966;28;20034;-84
2022/08/16 15:59:09;;;;;;;12.15;9.63;;;27.40;99.90;;;;;;10298155;28;20015;-84
2022/08/16 16:04:13;;;;;;;11.68;9.07;;;27.50;99.90;;;;;;10296672;28;20027;-85
2022/08/16 16:09:16;;;;;;;11.10;8.73;;;27.60;99.90;;;;;;10289760;28;20050;-85
2022/08/16 16:14:18;;;;;;;13.70;9.40;;;27.60;99.90;;;;;;10304995;28;20070;-82
2022/08/16 16:19:20;;;;;;;11.70;8.32;;;27.60;99.90;;;;;;10293811;28;20549;-83
2022/08/16 16:24:20;;;;;;;16.20;8.30;;;27.60;99.90;;;;;;10324105;28;20026;-83
2022/08/16 16:29:21;;;;;;;11.45;9.40;;;27.60;99.90;;;;;;10317565;28;20031;-85
2022/08/16 16:34:24;;;;;;;13.18;8.75;;;27.60;99.90;;;;;;10296764;28;20049;-84
2022/08/16 16:39:25;;;;;;;12.38;8.57;;;27.50;99.90;;;;;;10313334;28;20034;-84
2022/08/16 16:44:25;;;;;;;13.52;9.73;;;27.40;99.90;;;;;;10300255;28;20087;-86
2022/08/16 16:49:26;;;;;;;16.20;11.15;;;27.30;99.90;;;;;;10292357;28;20034;-87
2022/08/16 16:54:27;;;;;;;13.15;9.45;;;27.10;99.90;;;;;;10307586;28;20046;-85
2022/08/16 16:59:27;;;;;;;11.32;9.65;;;27.00;99.90;;;;;;10305924;28;20038;-84
2022/08/16 17:04:28;;;;;;;14.70;10.13;;;26.70;99.90;;;;;;10280400;28;20023;-84
2022/08/16 17:09:29;;;;;;;13.55;9.85;;;26.40;99.90;;;;;;10295411;28;20051;-85
2022/08/16 17:14:30;;;;;;;15.98;10.93;;;26.00;99.90;;;;;;10275705;28;20121;-84
2022/08/16 17:19:31;;;;;;;14.07;11.25;;;25.80;99.90;;;;;;10308072;28;20027;-84
2022/08/16 17:24:32;;;;;;;15.85;12.52;;;25.30;99.90;;;;;;10277535;28;20030;-82
2022/08/16 17:29:33;;;;;;;14.95;10.88;;;25.00;99.90;;;;;;10292468;28;20035;-85
2022/08/16 17:34:34;;;;;;;18.17;12.60;;;24.60;99.90;;;;;;10286691;28;20045;-84
2022/08/16 17:39:35;;;;;;;18.08;12.68;;;24.30;99.90;;;;;;10299261;28;20025;-82
2022/08/16 17:44:36;;;;;;;16.83;12.18;;;23.90;99.90;;;;;;10311108;28;20053;-85
2022/08/16 17:49:37;;;;;;;16.83;13.38;;;23.50;99.90;;;;;;10282701;28;20101;-84
2022/08/16 17:54:38;;;;;;;16.98;14.07;;;23.30;99.90;;;;;;10285157;28;20043;-84
2022/08/16 17:59:38;;;;;;;18.33;14.15;;;23.00;99.90;;;;;;10278840;28;20023;-83
2022/08/16 18:04:39;;;;;;;17.73;13.40;;;22.70;99.90;;;;;;10294216;28;20033;-85
2022/08/16 18:09:39;;;;;;;16.85;12.85;;;22.50;99.90;;;;;;10290238;28;20453;-84
2022/08/16 18:14:40;;;;;;;15.90;12.15;;;22.40;99.90;;;;;;10290924;28;20099;-83
2022/08/16 18:19:41;;;;;;;17.55;12.90;;;22.40;99.90;;;;;;10293903;28;20114;-81
2022/08/16 18:24:41;;;;;;;17.25;12.02;;;22.30;99.90;;;;;;10291705;28;20035;-84
2022/08/16 18:29:44;;;;;;;20.00;13.50;;;22.20;99.90;;;;;;10270272;28;20041;-85
2022/08/16 18:34:44;;;;;;;17.35;13.70;;;22.10;99.90;;;;;;10284244;28;20045;-85
2022/08/16 18:39:45;;;;;;;16.95;13.05;;;21.90;99.90;;;;;;10288945;28;20034;-88
2022/08/16 18:44:46;;;;;;;23.98;17.05;;;21.70;99.90;;;;;;10268837;28;20027;-85
2022/08/16 18:49:46;;;;;;;21.65;15.70;;;21.50;99.90;;;;;;10293029;28;20019;-81
2022/08/16 18:54:48;;;;;;;18.52;13.60;;;21.30;99.90;;;;;;10292284;28;20078;-82
2022/08/16 18:59:48;;;;;;;16.90;13.77;;;21.20;99.90;;;;;;10287609;28;20034;-82
2022/08/16 19:04:49;;;;;;;17.92;13.88;;;21.20;99.90;;;;;;10290986;28;20033;-82
2022/08/16 19:09:49;;;;;;;21.17;15.10;;;21.20;99.90;;;;;;10302984;28;20112;-82
2022/08/16 19:14:50;;;;;;;19.20;14.45;;;21.10;99.90;;;;;;10292186;28;20093;-82
2022/08/16 19:19:50;;;;;;;22.90;17.42;;;21.00;99.90;;;;;;10305195;28;20042;-82
2022/08/16 19:24:51;;;;;;;22.10;16.05;;;20.90;99.90;;;;;;10292377;28;20545;-83
2022/08/16 19:29:52;;;;;;;21.90;16.42;;;20.90;99.90;;;;;;10293081;28;20038;-82
2022/08/16 19:34:58;;;;;;;25.00;17.27;;;21.00;99.90;;;;;;10295687;28;20049;-82
2022/08/16 19:39:59;;;;;;;21.52;16.50;;;20.90;99.90;;;;;;10294250;28;20073;-83
2022/08/16 19:45:00;;;;;;;19.83;14.93;;;21.00;99.90;;;;;;10301614;28;20038;-82
2022/08/16 19:50:01;;;;;;;18.75;15.18;;;21.20;99.90;;;;;;10284996;28;20386;-82
2022/08/16 19:55:05;;;;;;;23.10;16.25;;;21.00;99.90;;;;;;10283100;28;20038;-81
2022/08/16 20:00:16;;;;;;;22.93;16.80;;;20.90;99.90;;;;;;10307967;28;20054;-81
2022/08/16 20:05:28;;;;;;;18.80;14.70;;;20.80;99.90;;;;;;10270004;28;20026;-81
2022/08/16 20:10:29;;;;;;;24.58;17.23;;;20.70;99.90;;;;;;10294811;28;20062;-83
2022/08/16 20:15:30;;;;;;;21.00;17.27;;;20.50;99.90;;;;;;10283589;28;20093;-82
2022/08/16 20:20:31;;;;;;;26.52;17.15;;;20.40;99.90;;;;;;10288480;28;20030;-81
2022/08/16 20:25:32;;;;;;;26.15;17.40;;;20.20;99.90;;;;;;10294752;28;20041;-82
2022/08/16 20:30:33;;;;;;;26.08;19.70;;;20.20;99.90;;;;;;10267234;28;20769;-82
2022/08/16 20:36:11;;;;;;;;;;;;;;;;;;;;;
2022/08/16 20:47:34;;;;;;;25.85;18.90;;;20.00;99.90;;;;;;10266439;28;20035;-83
2022/08/16 20:59:23;;;;;;;24.55;18.15;;;20.00;99.90;;;;;;10076081;29;20191;-82
2022/08/16 21:04:27;;;;;;;25.15;18.90;;;20.00;99.90;;;;;;10169071;28;20050;-82
2022/08/16 21:09:31;;;;;;;26.13;18.70;;;20.00;99.90;;;;;;10259031;28;20154;-82
2022/08/16 21:14:32;;;;;;;30.48;21.10;;;19.90;99.90;;;;;;10280723;28;20118;-83
2022/08/16 21:19:34;;;;;;;25.98;18.17;;;19.90;99.90;;;;;;10261926;28;20049;-82
2022/08/16 21:24:34;;;;;;;28.08;21.05;;;19.80;99.90;;;;;;10278164;28;20057;-82
2022/08/16 21:29:35;;;;;;;28.55;20.30;;;19.80;99.90;;;;;;10277243;28;20108;-82
2022/08/16 21:34:36;;;;;;;24.90;19.95;;;19.90;99.90;;;;;;10295041;28;20041;-83
2022/08/16 21:39:37;;;;;;;29.13;21.52;;;19.80;99.90;;;;;;10300351;28;20074;-82
2022/08/16 21:45:28;;;;;;;25.52;18.63;;;19.70;99.90;;;;;;10279175;28;20117;-82
2022/08/16 21:50:54;;;;;;;26.35;20.25;;;19.80;99.90;;;;;;10288109;28;20027;-82
2022/08/16 21:55:57;;;;;;;29.00;18.40;;;19.70;99.90;;;;;;10288626;28;20494;-82
2022/08/16 22:00:59;;;;;;;23.92;18.45;;;19.70;99.90;;;;;;10303022;28;20090;-82
2022/08/16 22:06:00;;;;;;;24.25;18.75;;;19.70;99.90;;;;;;10294835;28;20512;-81
2022/08/16 22:11:02;;;;;;;29.27;20.63;;;19.60;99.90;;;;;;10270922;28;20114;-81
2022/08/16 22:16:03;;;;;;;27.88;20.10;;;19.60;99.90;;;;;;10265723;28;20852;-82
2022/08/16 22:21:04;;;;;;;25.70;18.40;;;19.60;99.90;;;;;;10239210;28;20085;-82
2022/08/16 22:26:04;;;;;;;24.15;16.75;;;19.60;99.90;;;;;;10260013;28;20034;-82
2022/08/16 22:31:05;;;;;;;23.98;17.58;;;19.60;99.90;;;;;;10261214;28;20023;-82
2022/08/16 22:36:06;;;;;;;25.48;17.85;;;19.70;99.90;;;;;;10253626;28;20122;-83
2022/08/16 22:41:06;;;;;;;27.10;20.40;;;19.60;99.90;;;;;;10260014;28;20035;-82
2022/08/16 22:46:07;;;;;;;27.67;20.65;;;19.60;99.90;;;;;;10292573;28;20673;-82
2022/08/16 22:51:07;;;;;;;26.58;18.13;;;19.60;99.90;;;;;;10302138;28;20038;-83
2022/08/16 22:56:08;;;;;;;25.25;19.45;;;19.60;99.90;;;;;;10302157;28;20062;-82
2022/08/16 23:01:09;;;;;;;26.42;19.08;;;19.50;99.90;;;;;;10304406;28;20073;-83
2022/08/16 23:06:11;;;;;;;23.88;16.02;;;19.50;99.90;;;;;;10308694;28;20531;-82
2022/08/16 23:11:18;;;;;;;23.58;17.55;;;19.50;99.90;;;;;;10306105;28;20410;-82
2022/08/16 23:16:20;;;;;;;26.05;18.80;;;19.50;99.90;;;;;;10303372;28;20043;-82
2022/08/16 23:21:20;;;;;;;27.48;20.05;;;19.40;99.90;;;;;;10310272;28;20107;-83
2022/08/16 23:26:21;;;;;;;24.95;18.55;;;19.40;99.90;;;;;;10301431;28;20081;-82
2022/08/16 23:31:22;;;;;;;29.20;19.33;;;19.30;99.90;;;;;;10281604;28;20038;-83
2022/08/16 23:36:23;;;;;;;27.42;19.75;;;19.30;99.90;;;;;;10264724;28;20485;-82
2022/08/16 23:41:23;;;;;;;24.10;17.50;;;19.30;99.90;;;;;;10283177;28;20036;-82
2022/08/16 23:46:24;;;;;;;28.00;18.45;;;19.40;99.90;;;;;;10282953;28;20030;-81
2022/08/16 23:51:24;;;;;;;26.35;18.88;;;19.40;99.90;;;;;;10283315;28;20041;-81
2022/08/16 23:56:25;;;;;;;24.60;18.10;;;19.40;99.90;;;;;;10283475;28;20042;-83
